sensor_id;sensor_type;location;lat;lon;timestamp;temperature;humidity
22908;DHT22;11620;50.050;8.690;2023-04-24T00:02:27;10.50;99.90
22908;DHT22;11620;50.050;8.690;2023-04-24T00:05:16;10.40;99.90
22908;DHT22;11620;50.050;8.690;2023-04-24T00:08:03;10.30;99.90
22908;DHT22;11620;50.050;8.690;2023-04-24T00:10:49;10.10;99.90
22908;DHT22;11620;50.050;8.690;2023-04-24T00:13:36;10.10;99.90
22908;DHT22;11620;50.050;8.690;2023-04-24T00:16:23;10.10;99.90
22908;DHT22;11620;50.050;8.690;2023-04-24T00:19:09;10.10;99.90
22908;DHT22;11620;50.050;8.690;2023-04-24T00:21:57;10.10;99.90
22908;DHT22;11620;50.050;8.690;2023-04-24T00:24:43;10.10;99.90
22908;DHT22;11620;50.050;8.690;2023-04-24T00:27:29;10.20;99.90
22908;DHT22;11620;50.050;8.690;2023-04-24T00:30:16;10.00;99.90
22908;DHT22;11620;50.050;8.690;2023-04-24T00:33:02;10.10;99.90
22908;DHT22;11620;50.050;8.690;2023-04-24T00:35:49;10.10;99.90
22908;DHT22;11620;50.050;8.690;2023-04-24T00:38:35;10.20;99.90
22908;DHT22;11620;50.050;8.690;2023-04-24T00:41:22;10.30;99.90
22908;DHT22;11620;50.050;8.690;2023-04-24T00:44:08;10.40;99.90
22908;DHT22;11620;50.050;8.690;2023-04-24T00:46:55;10.10;99.90
22908;DHT22;11620;50.050;8.690;2023-04-24T00:49:41;10.00;99.90
22908;DHT22;11620;50.050;8.690;2023-04-24T00:52:28;10.00;99.90
22908;DHT22;11620;50.050;8.690;2023-04-24T00:55:14;10.10;99.90
22908;DHT22;11620;50.050;8.690;2023-04-24T00:58:00;10.10;99.90
22908;DHT22;11620;50.050;8.690;2023-04-24T01:00:48;10.10;99.90
22908;DHT22;11620;50.050;8.690;2023-04-24T01:03:36;9.90;99.90
22908;DHT22;11620;50.050;8.690;2023-04-24T01:06:23;9.90;99.90
22908;DHT22;11620;50.050;8.690;2023-04-24T01:09:13;9.90;99.90
22908;DHT22;11620;50.050;8.690;2023-04-24T01:12:00;10.00;99.90
22908;DHT22;11620;50.050;8.690;2023-04-24T01:14:47;10.00;99.90
22908;DHT22;11620;50.050;8.690;2023-04-24T01:17:34;10.00;99.90
22908;DHT22;11620;50.050;8.690;2023-04-24T01:20:20;9.90;99.90
22908;DHT22;11620;50.050;8.690;2023-04-24T01:23:07;10.00;99.90
22908;DHT22;11620;50.050;8.690;2023-04-24T01:25:54;10.00;99.90
22908;DHT22;11620;50.050;8.690;2023-04-24T01:28:40;9.90;99.90
22908;DHT22;11620;50.050;8.690;2023-04-24T01:31:28;9.90;99.90
22908;DHT22;11620;50.050;8.690;2023-04-24T01:34:14;9.90;99.90
22908;DHT22;11620;50.050;8.690;2023-04-24T01:37:01;9.80;99.90
22908;DHT22;11620;50.050;8.690;2023-04-24T01:39:47;9.90;99.90
22908;DHT22;11620;50.050;8.690;2023-04-24T01:42:34;10.00;99.90
22908;DHT22;11620;50.050;8.690;2023-04-24T01:45:21;10.00;99.90
22908;DHT22;11620;50.050;8.690;2023-04-24T01:48:07;10.00;99.90
22908;DHT22;11620;50.050;8.690;2023-04-24T01:50:53;9.90;99.90
22908;DHT22;11620;50.050;8.690;2023-04-24T01:53:40;9.90;99.90
22908;DHT22;11620;50.050;8.690;2023-04-24T01:56:29;9.80;99.90
22908;DHT22;11620;50.050;8.690;2023-04-24T01:59:17;9.90;99.90
22908;DHT22;11620;50.050;8.690;2023-04-24T02:02:03;9.80;99.90
22908;DHT22;11620;50.050;8.690;2023-04-24T02:04:56;9.80;99.90
22908;DHT22;11620;50.050;8.690;2023-04-24T02:07:43;9.80;99.90
22908;DHT22;11620;50.050;8.690;2023-04-24T02:10:29;9.70;99.90
22908;DHT22;11620;50.050;8.690;2023-04-24T02:13:15;9.80;99.90
22908;DHT22;11620;50.050;8.690;2023-04-24T02:16:02;9.60;99.90
22908;DHT22;11620;50.050;8.690;2023-04-24T02:18:48;9.70;99.90
22908;DHT22;11620;50.050;8.690;2023-04-24T02:21:34;9.70;99.90
22908;DHT22;11620;50.050;8.690;2023-04-24T02:24:21;9.60;99.90
22908;DHT22;11620;50.050;8.690;2023-04-24T02:27:07;9.70;99.90
22908;DHT22;11620;50.050;8.690;2023-04-24T02:29:53;9.60;99.90
22908;DHT22;11620;50.050;8.690;2023-04-24T02:32:41;9.60;99.90
22908;DHT22;11620;50.050;8.690;2023-04-24T02:35:27;9.40;99.90
22908;DHT22;11620;50.050;8.690;2023-04-24T02:38:13;9.40;99.90
22908;DHT22;11620;50.050;8.690;2023-04-24T02:41:00;9.40;99.90
22908;DHT22;11620;50.050;8.690;2023-04-24T02:43:46;9.50;99.90
22908;DHT22;11620;50.050;8.690;2023-04-24T02:46:33;9.60;99.90
22908;DHT22;11620;50.050;8.690;2023-04-24T02:49:19;9.50;99.90
22908;DHT22;11620;50.050;8.690;2023-04-24T02:52:05;9.40;99.90
22908;DHT22;11620;50.050;8.690;2023-04-24T02:54:52;9.30;99.90
22908;DHT22;11620;50.050;8.690;2023-04-24T02:57:39;9.30;99.90
22908;DHT22;11620;50.050;8.690;2023-04-24T03:00:26;9.30;99.90
22908;DHT22;11620;50.050;8.690;2023-04-24T03:03:12;9.50;99.90
22908;DHT22;11620;50.050;8.690;2023-04-24T03:05:58;9.40;99.90
22908;DHT22;11620;50.050;8.690;2023-04-24T03:08:45;9.40;99.90
22908;DHT22;11620;50.050;8.690;2023-04-24T03:11:31;9.30;99.90
22908;DHT22;11620;50.050;8.690;2023-04-24T03:14:17;9.30;99.90
22908;DHT22;11620;50.050;8.690;2023-04-24T03:17:04;9.50;99.90
22908;DHT22;11620;50.050;8.690;2023-04-24T03:19:50;9.60;99.90
22908;DHT22;11620;50.050;8.690;2023-04-24T03:22:36;9.50;99.90
22908;DHT22;11620;50.050;8.690;2023-04-24T03:25:23;9.40;99.90
22908;DHT22;11620;50.050;8.690;2023-04-24T03:28:09;9.30;99.90
22908;DHT22;11620;50.050;8.690;2023-04-24T03:30:55;9.30;99.90
22908;DHT22;11620;50.050;8.690;2023-04-24T03:33:42;9.20;99.90
22908;DHT22;11620;50.050;8.690;2023-04-24T03:36:28;9.20;99.90
22908;DHT22;11620;50.050;8.690;2023-04-24T03:39:14;9.10;99.90
22908;DHT22;11620;50.050;8.690;2023-04-24T03:42:01;9.10;99.90
22908;DHT22;11620;50.050;8.690;2023-04-24T03:44:47;9.20;99.90
22908;DHT22;11620;50.050;8.690;2023-04-24T03:47:34;9.30;99.90
22908;DHT22;11620;50.050;8.690;2023-04-24T03:50:20;9.20;99.90
22908;DHT22;11620;50.050;8.690;2023-04-24T03:53:07;9.20;99.90
22908;DHT22;11620;50.050;8.690;2023-04-24T03:55:54;9.00;99.90
22908;DHT22;11620;50.050;8.690;2023-04-24T03:58:41;8.90;99.90
22908;DHT22;11620;50.050;8.690;2023-04-24T04:01:27;8.90;99.90
22908;DHT22;11620;50.050;8.690;2023-04-24T04:04:14;8.80;99.90
22908;DHT22;11620;50.050;8.690;2023-04-24T04:07:00;8.70;99.90
22908;DHT22;11620;50.050;8.690;2023-04-24T04:09:48;8.60;99.90
22908;DHT22;11620;50.050;8.690;2023-04-24T04:12:35;8.70;99.90
22908;DHT22;11620;50.050;8.690;2023-04-24T04:15:21;8.70;99.90
22908;DHT22;11620;50.050;8.690;2023-04-24T04:18:07;8.70;99.90
22908;DHT22;11620;50.050;8.690;2023-04-24T04:20:54;8.80;99.90
22908;DHT22;11620;50.050;8.690;2023-04-24T04:23:41;8.60;99.90
22908;DHT22;11620;50.050;8.690;2023-04-24T04:26:27;8.70;99.90
22908;DHT22;11620;50.050;8.690;2023-04-24T04:29:14;8.50;99.90
22908;DHT22;11620;50.050;8.690;2023-04-24T04:32:01;8.50;99.90
22908;DHT22;11620;50.050;8.690;2023-04-24T04:34:48;8.60;99.90
22908;DHT22;11620;50.050;8.690;2023-04-24T04:37:35;8.70;99.90
22908;DHT22;11620;50.050;8.690;2023-04-24T04:40:21;8.60;99.90
22908;DHT22;11620;50.050;8.690;2023-04-24T04:43:08;8.50;99.90
22908;DHT22;11620;50.050;8.690;2023-04-24T04:45:54;8.60;99.90
22908;DHT22;11620;50.050;8.690;2023-04-24T04:48:42;8.50;99.90
22908;DHT22;11620;50.050;8.690;2023-04-24T04:51:29;8.50;99.90
22908;DHT22;11620;50.050;8.690;2023-04-24T04:54:15;8.40;99.90
22908;DHT22;11620;50.050;8.690;2023-04-24T04:57:01;8.30;99.90
22908;DHT22;11620;50.050;8.690;2023-04-24T04:59:48;8.40;99.90
22908;DHT22;11620;50.050;8.690;2023-04-24T05:02:34;8.40;99.90
22908;DHT22;11620;50.050;8.690;2023-04-24T05:05:20;8.30;99.90
22908;DHT22;11620;50.050;8.690;2023-04-24T05:08:07;8.30;99.90
22908;DHT22;11620;50.050;8.690;2023-04-24T05:10:54;8.40;99.90
22908;DHT22;11620;50.050;8.690;2023-04-24T05:13:41;8.40;99.90
22908;DHT22;11620;50.050;8.690;2023-04-24T05:16:27;8.40;99.90
22908;DHT22;11620;50.050;8.690;2023-04-24T05:19:14;8.40;99.90
22908;DHT22;11620;50.050;8.690;2023-04-24T05:22:00;8.40;99.90
22908;DHT22;11620;50.050;8.690;2023-04-24T05:24:49;8.30;99.90
22908;DHT22;11620;50.050;8.690;2023-04-24T05:27:35;8.40;99.90
22908;DHT22;11620;50.050;8.690;2023-04-24T05:30:22;8.40;99.90
22908;DHT22;11620;50.050;8.690;2023-04-24T05:33:08;8.40;99.90
22908;DHT22;11620;50.050;8.690;2023-04-24T05:35:55;8.50;99.90
22908;DHT22;11620;50.050;8.690;2023-04-24T05:38:42;8.60;99.90
22908;DHT22;11620;50.050;8.690;2023-04-24T05:41:28;8.60;99.90
22908;DHT22;11620;50.050;8.690;2023-04-24T05:44:14;8.70;99.90
22908;DHT22;11620;50.050;8.690;2023-04-24T05:47:01;8.50;99.90
22908;DHT22;11620;50.050;8.690;2023-04-24T05:49:48;8.60;99.90
22908;DHT22;11620;50.050;8.690;2023-04-24T05:52:34;8.60;99.90
22908;DHT22;11620;50.050;8.690;2023-04-24T05:55:20;8.60;99.90
22908;DHT22;11620;50.050;8.690;2023-04-24T05:58:07;8.60;99.90
22908;DHT22;11620;50.050;8.690;2023-04-24T06:00:53;8.80;99.90
22908;DHT22;11620;50.050;8.690;2023-04-24T06:03:41;8.90;99.90
22908;DHT22;11620;50.050;8.690;2023-04-24T06:06:27;9.00;99.90
22908;DHT22;11620;50.050;8.690;2023-04-24T06:09:14;9.10;99.90
22908;DHT22;11620;50.050;8.690;2023-04-24T06:12:03;9.10;99.90
22908;DHT22;11620;50.050;8.690;2023-04-24T06:14:49;9.10;99.90
22908;DHT22;11620;50.050;8.690;2023-04-24T06:17:36;8.90;99.90
22908;DHT22;11620;50.050;8.690;2023-04-24T06:20:22;9.00;99.90
22908;DHT22;11620;50.050;8.690;2023-04-24T06:23:09;9.20;99.90
22908;DHT22;11620;50.050;8.690;2023-04-24T06:25:55;9.20;99.90
22908;DHT22;11620;50.050;8.690;2023-04-24T06:28:41;9.20;99.90
22908;DHT22;11620;50.050;8.690;2023-04-24T06:31:27;9.30;99.90
22908;DHT22;11620;50.050;8.690;2023-04-24T06:34:14;9.60;99.90
22908;DHT22;11620;50.050;8.690;2023-04-24T06:37:00;10.00;99.90
22908;DHT22;11620;50.050;8.690;2023-04-24T06:39:47;10.10;99.90
22908;DHT22;11620;50.050;8.690;2023-04-24T06:42:33;10.30;99.90
22908;DHT22;11620;50.050;8.690;2023-04-24T06:45:20;10.40;99.90
22908;DHT22;11620;50.050;8.690;2023-04-24T06:48:07;10.10;99.90
22908;DHT22;11620;50.050;8.690;2023-04-24T06:50:53;9.80;99.90
22908;DHT22;11620;50.050;8.690;2023-04-24T06:53:39;9.70;99.90
22908;DHT22;11620;50.050;8.690;2023-04-24T06:56:26;9.60;99.90
22908;DHT22;11620;50.050;8.690;2023-04-24T06:59:12;9.80;99.90
22908;DHT22;11620;50.050;8.690;2023-04-24T07:01:59;10.00;99.90
22908;DHT22;11620;50.050;8.690;2023-04-24T07:04:45;9.90;99.90
22908;DHT22;11620;50.050;8.690;2023-04-24T07:07:32;10.00;99.90
22908;DHT22;11620;50.050;8.690;2023-04-24T07:10:19;10.20;99.90
22908;DHT22;11620;50.050;8.690;2023-04-24T07:13:06;10.80;99.90
22908;DHT22;11620;50.050;8.690;2023-04-24T07:15:53;10.70;99.90
22908;DHT22;11620;50.050;8.690;2023-04-24T07:18:41;10.80;99.90
22908;DHT22;11620;50.050;8.690;2023-04-24T07:21:27;10.80;99.90
22908;DHT22;11620;50.050;8.690;2023-04-24T07:24:13;11.20;99.90
22908;DHT22;11620;50.050;8.690;2023-04-24T07:27:00;11.40;99.90
22908;DHT22;11620;50.050;8.690;2023-04-24T07:29:49;11.60;99.90
22908;DHT22;11620;50.050;8.690;2023-04-24T07:32:36;11.40;99.90
22908;DHT22;11620;50.050;8.690;2023-04-24T07:35:22;11.60;99.90
22908;DHT22;11620;50.050;8.690;2023-04-24T07:38:08;11.10;99.90
22908;DHT22;11620;50.050;8.690;2023-04-24T07:40:54;10.60;99.90
22908;DHT22;11620;50.050;8.690;2023-04-24T07:43:42;10.90;99.90
22908;DHT22;11620;50.050;8.690;2023-04-24T07:46:29;11.10;99.90
22908;DHT22;11620;50.050;8.690;2023-04-24T07:49:16;11.30;99.90
22908;DHT22;11620;50.050;8.690;2023-04-24T07:52:02;12.00;99.90
22908;DHT22;11620;50.050;8.690;2023-04-24T07:54:49;12.10;99.90
22908;DHT22;11620;50.050;8.690;2023-04-24T07:57:36;12.40;99.90
22908;DHT22;11620;50.050;8.690;2023-04-24T08:00:22;12.50;99.90
22908;DHT22;11620;50.050;8.690;2023-04-24T08:03:09;12.60;99.90
22908;DHT22;11620;50.050;8.690;2023-04-24T08:05:55;12.00;99.90
22908;DHT22;11620;50.050;8.690;2023-04-24T08:08:42;11.80;99.90
22908;DHT22;11620;50.050;8.690;2023-04-24T08:11:28;11.60;99.90
22908;DHT22;11620;50.050;8.690;2023-04-24T08:14:14;11.70;99.90
22908;DHT22;11620;50.050;8.690;2023-04-24T08:17:01;12.20;99.90
22908;DHT22;11620;50.050;8.690;2023-04-24T08:19:48;12.60;99.90
22908;DHT22;11620;50.050;8.690;2023-04-24T08:22:34;12.80;99.90
22908;DHT22;11620;50.050;8.690;2023-04-24T08:25:21;13.30;99.90
22908;DHT22;11620;50.050;8.690;2023-04-24T08:28:09;13.60;99.90
22908;DHT22;11620;50.050;8.690;2023-04-24T08:30:56;13.40;99.90
22908;DHT22;11620;50.050;8.690;2023-04-24T08:33:43;13.90;99.90
22908;DHT22;11620;50.050;8.690;2023-04-24T08:36:31;13.90;99.90
22908;DHT22;11620;50.050;8.690;2023-04-24T08:39:18;13.90;99.90
22908;DHT22;11620;50.050;8.690;2023-04-24T08:42:05;13.50;99.90
22908;DHT22;11620;50.050;8.690;2023-04-24T08:44:54;13.00;99.90
22908;DHT22;11620;50.050;8.690;2023-04-24T08:47:42;13.10;99.90
22908;DHT22;11620;50.050;8.690;2023-04-24T08:50:28;12.90;99.90
22908;DHT22;11620;50.050;8.690;2023-04-24T08:53:15;12.80;99.90
22908;DHT22;11620;50.050;8.690;2023-04-24T08:56:02;12.80;99.90
22908;DHT22;11620;50.050;8.690;2023-04-24T08:58:51;12.70;99.90
22908;DHT22;11620;50.050;8.690;2023-04-24T09:01:38;12.10;99.90
22908;DHT22;11620;50.050;8.690;2023-04-24T09:04:27;11.60;99.90
22908;DHT22;11620;50.050;8.690;2023-04-24T09:07:14;11.20;99.90
22908;DHT22;11620;50.050;8.690;2023-04-24T09:10:02;11.00;99.90
22908;DHT22;11620;50.050;8.690;2023-04-24T09:12:51;10.80;99.90
22908;DHT22;11620;50.050;8.690;2023-04-24T09:15:38;10.90;99.90
22908;DHT22;11620;50.050;8.690;2023-04-24T09:18:26;10.60;99.90
22908;DHT22;11620;50.050;8.690;2023-04-24T09:21:12;10.50;99.90
22908;DHT22;11620;50.050;8.690;2023-04-24T09:24:00;10.30;99.90
22908;DHT22;11620;50.050;8.690;2023-04-24T09:26:47;10.20;99.90
22908;DHT22;11620;50.050;8.690;2023-04-24T09:29:33;10.20;99.90
22908;DHT22;11620;50.050;8.690;2023-04-24T09:32:21;10.10;99.90
22908;DHT22;11620;50.050;8.690;2023-04-24T09:35:15;10.10;99.90
22908;DHT22;11620;50.050;8.690;2023-04-24T09:38:01;10.20;99.90
22908;DHT22;11620;50.050;8.690;2023-04-24T09:40:48;10.10;99.90
22908;DHT22;11620;50.050;8.690;2023-04-24T09:43:35;10.20;99.90
22908;DHT22;11620;50.050;8.690;2023-04-24T09:46:29;10.20;99.90
22908;DHT22;11620;50.050;8.690;2023-04-24T09:49:22;10.20;99.90
22908;DHT22;11620;50.050;8.690;2023-04-24T09:52:11;10.10;99.90
22908;DHT22;11620;50.050;8.690;2023-04-24T09:54:58;9.70;99.90
22908;DHT22;11620;50.050;8.690;2023-04-24T10:00:37;9.90;99.90
22908;DHT22;11620;50.050;8.690;2023-04-24T10:03:25;10.00;99.90
22908;DHT22;11620;50.050;8.690;2023-04-24T10:06:14;10.10;99.90
22908;DHT22;11620;50.050;8.690;2023-04-24T10:09:02;10.20;99.90
22908;DHT22;11620;50.050;8.690;2023-04-24T10:11:51;10.20;99.90
22908;DHT22;11620;50.050;8.690;2023-04-24T10:14:37;10.30;99.90
22908;DHT22;11620;50.050;8.690;2023-04-24T10:17:25;10.20;99.90
22908;DHT22;11620;50.050;8.690;2023-04-24T10:20:11;10.40;99.90
22908;DHT22;11620;50.050;8.690;2023-04-24T10:22:59;10.10;99.90
22908;DHT22;11620;50.050;8.690;2023-04-24T10:25:46;10.00;99.90
22908;DHT22;11620;50.050;8.690;2023-04-24T10:28:33;10.00;99.90
22908;DHT22;11620;50.050;8.690;2023-04-24T10:31:21;9.80;99.90
22908;DHT22;11620;50.050;8.690;2023-04-24T10:34:09;9.60;99.90
22908;DHT22;11620;50.050;8.690;2023-04-24T10:36:56;9.60;99.90
22908;DHT22;11620;50.050;8.690;2023-04-24T10:39:42;9.70;99.90
22908;DHT22;11620;50.050;8.690;2023-04-24T10:42:29;9.80;99.90
22908;DHT22;11620;50.050;8.690;2023-04-24T10:45:19;10.00;99.90
22908;DHT22;11620;50.050;8.690;2023-04-24T10:48:08;10.10;99.90
22908;DHT22;11620;50.050;8.690;2023-04-24T10:50:59;10.20;99.90
22908;DHT22;11620;50.050;8.690;2023-04-24T10:53:45;10.40;99.90
22908;DHT22;11620;50.050;8.690;2023-04-24T10:56:32;10.50;99.90
22908;DHT22;11620;50.050;8.690;2023-04-24T10:59:27;10.50;99.90
22908;DHT22;11620;50.050;8.690;2023-04-24T11:02:17;10.50;99.90
22908;DHT22;11620;50.050;8.690;2023-04-24T11:05:04;10.30;99.90
22908;DHT22;11620;50.050;8.690;2023-04-24T11:16:53;10.80;99.90
22908;DHT22;11620;50.050;8.690;2023-04-24T11:19:40;11.00;99.90
22908;DHT22;11620;50.050;8.690;2023-04-24T11:22:28;11.10;99.90
22908;DHT22;11620;50.050;8.690;2023-04-24T11:25:15;11.20;99.90
22908;DHT22;11620;50.050;8.690;2023-04-24T11:28:05;11.00;99.90
22908;DHT22;11620;50.050;8.690;2023-04-24T11:30:52;11.10;99.90
22908;DHT22;11620;50.050;8.690;2023-04-24T11:33:38;11.00;99.90
22908;DHT22;11620;50.050;8.690;2023-04-24T11:36:25;11.30;99.90
22908;DHT22;11620;50.050;8.690;2023-04-24T11:39:12;11.50;99.90
22908;DHT22;11620;50.050;8.690;2023-04-24T11:42:05;11.80;99.90
22908;DHT22;11620;50.050;8.690;2023-04-24T11:44:54;11.70;99.90
22908;DHT22;11620;50.050;8.690;2023-04-24T11:47:42;12.10;99.90
22908;DHT22;11620;50.050;8.690;2023-04-24T11:50:29;12.30;99.90
22908;DHT22;11620;50.050;8.690;2023-04-24T11:53:19;12.20;99.90
22908;DHT22;11620;50.050;8.690;2023-04-24T11:56:08;12.40;99.90
22908;DHT22;11620;50.050;8.690;2023-04-24T11:58:55;12.60;99.90
22908;DHT22;11620;50.050;8.690;2023-04-24T12:01:48;12.60;99.90
22908;DHT22;11620;50.050;8.690;2023-04-24T12:04:40;13.20;99.90
22908;DHT22;11620;50.050;8.690;2023-04-24T12:07:27;13.40;99.90
22908;DHT22;11620;50.050;8.690;2023-04-24T12:10:13;13.50;99.90
22908;DHT22;11620;50.050;8.690;2023-04-24T12:13:00;14.00;99.90
22908;DHT22;11620;50.050;8.690;2023-04-24T12:15:47;14.30;99.90
22908;DHT22;11620;50.050;8.690;2023-04-24T12:18:33;14.00;99.90
22908;DHT22;11620;50.050;8.690;2023-04-24T12:21:22;13.00;99.90
22908;DHT22;11620;50.050;8.690;2023-04-24T12:24:08;13.00;99.90
22908;DHT22;11620;50.050;8.690;2023-04-24T12:26:54;13.00;99.90
22908;DHT22;11620;50.050;8.690;2023-04-24T12:29:56;12.90;99.90
22908;DHT22;11620;50.050;8.690;2023-04-24T12:32:44;12.60;99.90
22908;DHT22;11620;50.050;8.690;2023-04-24T12:35:32;12.40;99.90
22908;DHT22;11620;50.050;8.690;2023-04-24T12:38:22;12.40;99.90
22908;DHT22;11620;50.050;8.690;2023-04-24T12:41:13;12.40;99.90
22908;DHT22;11620;50.050;8.690;2023-04-24T12:44:00;12.00;99.90
22908;DHT22;11620;50.050;8.690;2023-04-24T12:46:46;11.90;99.90
22908;DHT22;11620;50.050;8.690;2023-04-24T12:49:33;11.80;99.90
22908;DHT22;11620;50.050;8.690;2023-04-24T12:52:19;11.80;99.90
22908;DHT22;11620;50.050;8.690;2023-04-24T12:55:06;11.80;99.90
22908;DHT22;11620;50.050;8.690;2023-04-24T12:57:56;11.70;99.90
22908;DHT22;11620;50.050;8.690;2023-04-24T13:00:42;11.70;99.90
22908;DHT22;11620;50.050;8.690;2023-04-24T13:03:30;11.80;99.90
22908;DHT22;11620;50.050;8.690;2023-04-24T13:06:16;12.10;99.90
22908;DHT22;11620;50.050;8.690;2023-04-24T13:09:02;12.50;99.90
22908;DHT22;11620;50.050;8.690;2023-04-24T13:11:50;12.90;99.90
22908;DHT22;11620;50.050;8.690;2023-04-24T13:14:37;13.30;99.90
22908;DHT22;11620;50.050;8.690;2023-04-24T13:17:23;13.30;99.90
22908;DHT22;11620;50.050;8.690;2023-04-24T13:20:09;13.60;99.90
22908;DHT22;11620;50.050;8.690;2023-04-24T13:22:56;13.90;99.90
22908;DHT22;11620;50.050;8.690;2023-04-24T13:25:42;14.20;99.90
22908;DHT22;11620;50.050;8.690;2023-04-24T13:28:29;14.30;99.90
22908;DHT22;11620;50.050;8.690;2023-04-24T13:31:16;14.10;99.90
22908;DHT22;11620;50.050;8.690;2023-04-24T13:34:03;14.20;99.90
22908;DHT22;11620;50.050;8.690;2023-04-24T13:36:54;14.10;99.90
22908;DHT22;11620;50.050;8.690;2023-04-24T13:39:40;13.80;99.90
22908;DHT22;11620;50.050;8.690;2023-04-24T13:42:27;13.60;99.90
22908;DHT22;11620;50.050;8.690;2023-04-24T13:45:13;13.30;99.90
22908;DHT22;11620;50.050;8.690;2023-04-24T13:48:00;13.40;99.90
22908;DHT22;11620;50.050;8.690;2023-04-24T13:50:47;13.40;99.90
22908;DHT22;11620;50.050;8.690;2023-04-24T13:53:35;13.40;99.90
22908;DHT22;11620;50.050;8.690;2023-04-24T13:56:24;13.40;99.90
22908;DHT22;11620;50.050;8.690;2023-04-24T13:59:12;13.40;99.90
22908;DHT22;11620;50.050;8.690;2023-04-24T14:01:59;13.40;99.90
22908;DHT22;11620;50.050;8.690;2023-04-24T14:04:45;13.30;99.90
22908;DHT22;11620;50.050;8.690;2023-04-24T14:07:33;13.20;99.90
22908;DHT22;11620;50.050;8.690;2023-04-24T14:10:19;12.80;99.90
22908;DHT22;11620;50.050;8.690;2023-04-24T14:13:05;12.50;99.90
22908;DHT22;11620;50.050;8.690;2023-04-24T14:15:52;12.50;99.90
22908;DHT22;11620;50.050;8.690;2023-04-24T14:18:38;13.00;99.90
22908;DHT22;11620;50.050;8.690;2023-04-24T14:21:25;13.60;99.90
22908;DHT22;11620;50.050;8.690;2023-04-24T14:24:11;13.70;99.90
22908;DHT22;11620;50.050;8.690;2023-04-24T14:26:57;13.50;99.90
22908;DHT22;11620;50.050;8.690;2023-04-24T14:29:44;13.40;99.90
22908;DHT22;11620;50.050;8.690;2023-04-24T14:32:31;13.20;99.90
22908;DHT22;11620;50.050;8.690;2023-04-24T14:35:17;13.20;99.90
22908;DHT22;11620;50.050;8.690;2023-04-24T14:38:04;13.10;99.90
22908;DHT22;11620;50.050;8.690;2023-04-24T14:40:50;13.30;99.90
22908;DHT22;11620;50.050;8.690;2023-04-24T14:43:36;13.30;99.90
22908;DHT22;11620;50.050;8.690;2023-04-24T14:46:23;13.30;99.90
22908;DHT22;11620;50.050;8.690;2023-04-24T14:49:09;12.60;99.90
22908;DHT22;11620;50.050;8.690;2023-04-24T14:51:55;12.40;99.90
22908;DHT22;11620;50.050;8.690;2023-04-24T14:54:42;12.40;99.90
22908;DHT22;11620;50.050;8.690;2023-04-24T14:57:29;12.70;99.90
22908;DHT22;11620;50.050;8.690;2023-04-24T15:00:16;12.80;99.90
22908;DHT22;11620;50.050;8.690;2023-04-24T15:03:03;12.90;99.90
22908;DHT22;11620;50.050;8.690;2023-04-24T15:05:29;12.80;99.90
22908;DHT22;11620;50.050;8.690;2023-04-24T15:07:56;12.60;99.90
22908;DHT22;11620;50.050;8.690;2023-04-24T15:10:22;12.80;99.90
22908;DHT22;11620;50.050;8.690;2023-04-24T15:12:49;12.80;99.90
22908;DHT22;11620;50.050;8.690;2023-04-24T15:15:15;12.70;99.90
22908;DHT22;11620;50.050;8.690;2023-04-24T15:17:41;12.60;99.90
22908;DHT22;11620;50.050;8.690;2023-04-24T15:20:08;12.50;99.90
22908;DHT22;11620;50.050;8.690;2023-04-24T15:22:34;12.40;99.90
22908;DHT22;11620;50.050;8.690;2023-04-24T15:25:20;12.30;99.90
22908;DHT22;11620;50.050;8.690;2023-04-24T15:28:07;12.20;99.90
22908;DHT22;11620;50.050;8.690;2023-04-24T15:30:53;12.30;99.90
22908;DHT22;11620;50.050;8.690;2023-04-24T15:33:39;12.40;99.90
22908;DHT22;11620;50.050;8.690;2023-04-24T15:36:26;12.50;99.90
22908;DHT22;11620;50.050;8.690;2023-04-24T15:39:12;12.50;99.90
22908;DHT22;11620;50.050;8.690;2023-04-24T15:41:59;12.20;99.90
22908;DHT22;11620;50.050;8.690;2023-04-24T15:44:46;12.20;99.90
22908;DHT22;11620;50.050;8.690;2023-04-24T15:47:32;12.10;99.90
22908;DHT22;11620;50.050;8.690;2023-04-24T15:50:19;12.30;99.90
22908;DHT22;11620;50.050;8.690;2023-04-24T15:53:07;12.00;99.90
22908;DHT22;11620;50.050;8.690;2023-04-24T15:55:54;12.10;99.90
22908;DHT22;11620;50.050;8.690;2023-04-24T15:58:42;11.70;99.90
22908;DHT22;11620;50.050;8.690;2023-04-24T16:01:29;11.60;99.90
22908;DHT22;11620;50.050;8.690;2023-04-24T16:04:16;11.50;99.90
22908;DHT22;11620;50.050;8.690;2023-04-24T16:07:02;11.50;99.90
22908;DHT22;11620;50.050;8.690;2023-04-24T16:09:49;11.60;99.90
22908;DHT22;11620;50.050;8.690;2023-04-24T16:12:35;11.80;99.90
22908;DHT22;11620;50.050;8.690;2023-04-24T16:15:22;11.90;99.90
22908;DHT22;11620;50.050;8.690;2023-04-24T16:18:08;12.10;99.90
22908;DHT22;11620;50.050;8.690;2023-04-24T16:20:55;12.10;99.90
22908;DHT22;11620;50.050;8.690;2023-04-24T16:23:42;12.00;99.90
22908;DHT22;11620;50.050;8.690;2023-04-24T16:26:28;11.70;99.90
22908;DHT22;11620;50.050;8.690;2023-04-24T16:29:15;11.70;99.90
22908;DHT22;11620;50.050;8.690;2023-04-24T16:32:01;11.80;99.90
22908;DHT22;11620;50.050;8.690;2023-04-24T16:34:47;12.00;99.90
22908;DHT22;11620;50.050;8.690;2023-04-24T16:37:34;12.00;99.90
22908;DHT22;11620;50.050;8.690;2023-04-24T16:40:21;12.00;99.90
22908;DHT22;11620;50.050;8.690;2023-04-24T16:43:07;11.80;99.90
22908;DHT22;11620;50.050;8.690;2023-04-24T16:45:53;11.80;99.90
22908;DHT22;11620;50.050;8.690;2023-04-24T16:48:40;11.80;99.90
22908;DHT22;11620;50.050;8.690;2023-04-24T16:51:26;11.80;99.90
22908;DHT22;11620;50.050;8.690;2023-04-24T16:54:12;12.00;99.90
22908;DHT22;11620;50.050;8.690;2023-04-24T16:56:59;11.90;99.90
22908;DHT22;11620;50.050;8.690;2023-04-24T16:59:45;11.90;99.90
22908;DHT22;11620;50.050;8.690;2023-04-24T17:02:31;11.80;99.90
22908;DHT22;11620;50.050;8.690;2023-04-24T17:05:18;11.90;99.90
22908;DHT22;11620;50.050;8.690;2023-04-24T17:08:06;12.00;99.90
22908;DHT22;11620;50.050;8.690;2023-04-24T17:10:52;12.00;99.90
22908;DHT22;11620;50.050;8.690;2023-04-24T17:13:39;11.80;99.90
22908;DHT22;11620;50.050;8.690;2023-04-24T17:16:25;11.70;99.90
22908;DHT22;11620;50.050;8.690;2023-04-24T17:19:12;11.60;99.90
22908;DHT22;11620;50.050;8.690;2023-04-24T17:21:58;11.60;99.90
22908;DHT22;11620;50.050;8.690;2023-04-24T17:24:44;11.70;99.90
22908;DHT22;11620;50.050;8.690;2023-04-24T17:27:31;11.80;99.90
22908;DHT22;11620;50.050;8.690;2023-04-24T17:30:17;11.80;99.90
22908;DHT22;11620;50.050;8.690;2023-04-24T17:33:03;11.80;99.90
22908;DHT22;11620;50.050;8.690;2023-04-24T17:35:50;11.60;99.90
22908;DHT22;11620;50.050;8.690;2023-04-24T17:38:36;11.50;99.90
22908;DHT22;11620;50.050;8.690;2023-04-24T17:41:22;11.50;99.90
22908;DHT22;11620;50.050;8.690;2023-04-24T17:44:09;11.50;99.90
22908;DHT22;11620;50.050;8.690;2023-04-24T17:46:55;11.30;99.90
22908;DHT22;11620;50.050;8.690;2023-04-24T17:49:41;11.30;99.90